首页
METAR-TAF:

METAR-TAF

机场 :

庫拉索國際機場

库拉索, 荷属安的列斯

纬度: 12-12N, 经度: 068-58W, 海拔: 9米

当前天气观测

该预报发布于15分钟前的21:15 UTC
风速11节,风向东南
温度 26°C
湿度 89%
气压 1009 hPa
能見度: 1500
阴天层高于1300英尺

METAR: TNCC 222115Z AUTO 13011KT 1500 OVC013 26/24 Q1009 TEMPO 3000 SHRA FEW012CB BKN014TCU

时间: 17:30 (21:30 UTC)

预报

该预报发布于6小时和0分钟前的15:30 UTC
预报有效从22日的 18点(UTC)到 23日的 18点(UTC)
风速10节,风向
能见度10公里或以上
散云层高于2000英尺
短暂存在
从 22日的 22点(UTC)到 23日的 14点(UTC)
能見度: 5000
多云层高于1500英尺
阵雨

TAF: TNCC 221530Z 2218/2318 08010KT 9999 SCT020 TEMPO 2222/2314 5000 SHRA BKN015

超过4000个机场的气象观测和天气预报(METAR&TAF报告)。

可查询的气象台以黄色和红色小点在地图上表示。

将鼠标移到小点上方,可查看气象台名称。

然后点击查看天气观测和预报。

如需切换地图:点击带黑十字的绿色按钮放大地图;点击带横线的绿色按钮缩小地图;或者点击绿色箭头查看邻近地区的地图。


METAR-TAF: